Terminal Aerodrome Forecast
Issued by NWS

Home | Current Version | Previous Version | Text Only | Print | Product List | Glossary On
Versions: 1 2 3 4 5 6 7 8 9 10 11 12 13 14
000
FTUS43 KAPX 182327
TAFAPN
TAF
KAPN 182327Z 1900/1924 05007KT P6SM SKC
     FM190100 08003KT P6SM SKC
     FM191000 10006KT P6SM SCT250 WS015/13030KT
     FM191400 11012G20KT P6SM BKN250
     FM192200 10010G18KT P6SM VCSH OVC060=

USA.gov is the U.S. government's official web portal to all federal, state and local government web resources and services.